Time;durP1;ratioP1;P1;durP2;ratioP2;P2;SDS_P1;SDS_P2;PMS_P1;PMS_P2;Temp;Humidity;BMP_temperature;BMP_pressure;BME280_temperature;BME280_humidity;BME280_pressure;Samples;Min_cycle;Max_cycle;Signal;HPM_P1;HPM_P2
2022/01/18 00:01:25;;;;;;;6.37;5.10;;;;;;;6.20;nan;-23990.09;5053219;28;20194;-73
2022/01/18 00:03:50;;;;;;;6.57;4.70;;;;;;;6.29;nan;-23992.50;5052613;28;20195;-73
2022/01/18 00:06:16;;;;;;;6.40;4.67;;;;;;;5.89;nan;-23981.16;5052829;28;20262;-73
2022/01/18 00:08:41;;;;;;;7.70;4.70;;;;;;;6.22;nan;-23990.66;5053169;28;20595;-73
2022/01/18 00:11:07;;;;;;;7.33;4.83;;;;;;;6.03;nan;-23985.28;5052689;28;20593;-73
2022/01/18 00:18:36;;;;;;;6.30;4.33;;;;;;;5.60;nan;-23973.19;5052175;28;20576;-73
2022/01/18 00:23:27;;;;;;;5.43;3.87;;;;;;;5.70;nan;-23976.03;5052195;28;20182;-73
2022/01/18 00:25:56;;;;;;;4.63;3.50;;;;;;;6.16;nan;-23988.97;5050899;28;20606;-73
2022/01/18 00:28:24;;;;;;;5.60;4.20;;;;;;;5.74;nan;-23977.16;5052002;28;20166;-72
2022/01/18 00:34:02;;;;;;;4.60;3.60;;;;;;;6.40;nan;-23995.63;5014531;28;20650;-73
2022/01/18 00:39:11;;;;;;;4.80;3.30;;;;;;;6.27;nan;-23991.81;5052115;28;20644;-74
2022/01/18 00:41:38;;;;;;;4.50;3.60;;;;;;;6.49;nan;-23998.06;5052136;28;20170;-74
2022/01/18 00:44:05;;;;;;;4.10;3.30;;;;;;;6.33;nan;-23993.66;5051863;28;20205;-74
2022/01/18 00:46:31;;;;;;;5.20;3.20;;;;;;;6.44;nan;-23996.63;5051791;28;20170;-73
2022/01/18 00:49:01;;;;;;;3.20;2.90;;;;;;;6.00;nan;-23984.28;5051549;28;20253;-73
2022/01/18 00:51:28;;;;;;;4.20;2.83;;;;;;;6.08;nan;-23986.56;5051807;28;20618;-73
2022/01/18 00:53:57;;;;;;;3.83;2.93;;;;;;;6.11;nan;-23987.41;5052056;28;20518;-73
2022/01/18 00:56:24;;;;;;;7.50;3.03;;;;;;;6.06;nan;-23986.13;5051632;28;20171;-73
2022/01/18 00:58:50;;;;;;;4.33;3.10;;;;;;;6.08;nan;-23986.69;5042881;28;20280;-73
2022/01/18 01:01:17;;;;;;;4.23;2.90;;;;;;;6.37;nan;-23994.78;5051100;28;20265;-73
2022/01/18 01:03:43;;;;;;;4.23;2.90;;;;;;;6.45;nan;-23996.91;5051476;28;20666;-73
2022/01/18 01:06:09;;;;;;;5.47;2.70;;;;;;;6.35;nan;-23994.22;5051593;28;20178;-74
2022/01/18 01:08:35;;;;;;;3.47;2.50;;;;;;;6.46;nan;-23997.19;5046546;28;20179;-74
2022/01/18 01:11:06;;;;;;;4.23;2.73;;;;;;;6.03;nan;-23985.28;5041747;28;20214;-74
2022/01/18 01:13:33;;;;;;;3.53;2.77;;;;;;;6.27;nan;-23991.81;5051911;28;20661;-74
2022/01/18 01:43:10;;;;;;;3.37;2.87;;;;;;;6.04;nan;-23985.56;5050984;28;20217;-73
2022/01/18 01:45:37;;;;;;;3.87;2.77;;;;;;;6.48;nan;-23997.91;5044095;28;20632;-72
2022/01/18 01:48:03;;;;;;;3.20;2.70;;;;;;;6.55;nan;-23999.91;5040210;28;20212;-73
2022/01/18 01:53:11;;;;;;;3.77;2.70;;;;;;;5.92;nan;-23982.00;5031543;28;20637;-73
2022/01/18 01:55:38;;;;;;;5.27;2.57;;;;;;;5.89;nan;-23981.16;5030617;28;20183;-73
2022/01/18 01:58:03;;;;;;;3.27;2.60;;;;;;;5.59;nan;-23972.91;5037213;28;20605;-71
2022/01/18 02:00:29;;;;;;;3.03;2.50;;;;;;;5.64;nan;-23974.31;5048508;28;20265;-73
2022/01/18 02:02:54;;;;;;;3.07;2.40;;;;;;;5.51;nan;-23970.47;5042956;28;20528;-74
2022/01/18 02:05:23;;;;;;;3.20;2.70;;;;;;;5.52;nan;-23970.78;5051161;28;20179;-74
2022/01/18 02:07:50;;;;;;;3.23;2.60;;;;;;;5.24;nan;-23962.94;5046993;28;20187;-74
2022/01/18 02:10:15;;;;;;;3.63;2.57;;;;;;;5.20;nan;-23961.81;5040012;28;20182;-73
2022/01/18 02:12:40;;;;;;;2.87;2.57;;;;;;;4.97;nan;-23955.41;5036730;28;20727;-74
2022/01/18 02:15:13;;;;;;;4.90;2.90;;;;;;;4.88;nan;-23952.84;5036742;28;20239;-74
2022/01/18 02:23:19;;;;;;;2.70;2.50;;;;;;;5.20;nan;-23961.81;5054531;28;20193;-73
2022/01/18 02:25:44;;;;;;;4.13;2.33;;;;;;;5.01;nan;-23956.56;5054501;28;20622;-74
2022/01/18 02:28:11;;;;;;;2.37;2.17;;;;;;;4.81;nan;-23950.84;5054517;28;20179;-73
2022/01/18 02:30:37;;;;;;;2.87;2.30;;;;;;;5.39;nan;-23967.06;5036589;28;20603;-73
2022/01/18 02:33:02;;;;;;;2.63;2.17;;;;;;;4.93;nan;-23954.28;5054092;28;20701;-73
2022/01/18 02:35:32;;;;;;;2.67;2.10;;;;;;;5.15;nan;-23960.41;5054343;28;20255;-74
2022/01/18 02:37:57;;;;;;;3.43;2.50;;;;;;;5.27;nan;-23963.81;5054196;28;20201;-74
2022/01/18 02:40:23;;;;;;;2.70;2.50;;;;;;;4.68;nan;-23947.31;5054334;28;20176;-74
2022/01/18 02:42:57;;;;;;;2.80;2.40;;;;;;;4.55;nan;-23943.59;5054276;28;20205;-74
2022/01/18 02:45:23;;;;;;;2.63;2.40;;;;;;;4.86;nan;-23952.28;5054562;28;20304;-73
2022/01/18 02:47:50;;;;;;;3.00;2.50;;;;;;;4.53;nan;-23943.03;5054132;28;20261;-73
2022/01/18 02:50:17;;;;;;;2.63;2.30;;;;;;;4.73;nan;-23948.72;5054005;28;20645;-72
2022/01/18 02:52:43;;;;;;;3.23;2.70;;;;;;;4.57;nan;-23944.03;5053642;28;20567;-72
2022/01/18 02:55:08;;;;;;;3.70;2.77;;;;;;;4.50;nan;-23942.19;5053979;28;20175;-72
2022/01/18 02:57:42;;;;;;;2.70;2.50;;;;;;;4.44;nan;-23940.47;5053914;28;20175;-73
2022/01/18 03:03:12;;;;;;;2.40;2.20;;;;;;;4.20;nan;-23933.78;5053676;28;20611;-73
2022/01/18 03:03:16;;;;;;;3.83;2.17;;;;;;;4.20;nan;-23933.63;5022733;28;20285;-73
2022/01/18 03:05:44;;;;;;;3.53;2.20;;;;;;;3.79;nan;-23922.25;5053818;28;20171;-72
2022/01/18 03:08:10;;;;;;;3.60;2.17;;;;;;;3.78;nan;-23921.97;5053771;28;20166;-73
2022/01/18 03:10:38;;;;;;;2.20;1.90;;;;;;;3.79;nan;-23922.09;5054313;28;20174;-73
2022/01/18 03:13:04;;;;;;;3.30;1.80;;;;;;;4.22;nan;-23934.34;5053678;28;20630;-72
2022/01/18 03:15:30;;;;;;;2.17;1.90;;;;;;;3.73;nan;-23920.38;5053623;28;20280;-73
2022/01/18 03:17:55;;;;;;;2.10;1.80;;;;;;;4.01;nan;-23928.38;5053185;28;20209;-73
2022/01/18 03:20:22;;;;;;;2.10;1.70;;;;;;;3.34;nan;-23909.41;5052596;28;20261;-73
2022/01/18 03:22:49;;;;;;;2.10;1.70;;;;;;;3.56;nan;-23915.81;5035262;28;20617;-72
2022/01/18 03:28:05;;;;;;;3.90;1.57;;;;;;;3.28;nan;-23907.84;5053514;28;20185;-72
2022/01/18 03:30:40;;;;;;;1.90;1.60;;;;;;;3.68;nan;-23918.97;5053331;28;20701;-72
2022/01/18 03:33:08;;;;;;;2.10;1.90;;;;;;;3.28;nan;-23907.84;5053164;28;20182;-72
2022/01/18 03:35:34;;;;;;;2.57;2.20;;;;;;;3.03;nan;-23900.88;5053166;28;20198;-72
2022/01/18 03:38:00;;;;;;;2.50;2.00;;;;;;;2.76;nan;-23893.16;5053225;28;20291;-72
2022/01/18 03:40:26;;;;;;;2.17;1.90;;;;;;;3.10;nan;-23902.72;5053089;28;20498;-72
2022/01/18 03:42:54;;;;;;;2.10;1.87;;;;;;;3.58;nan;-23916.25;5053233;28;20181;-72
2022/01/18 03:45:23;;;;;;;2.10;1.90;;;;;;;3.67;nan;-23918.81;5052885;28;20645;-72
2022/01/18 03:47:50;;;;;;;2.73;1.80;;;;;;;3.15;nan;-23904.00;5052843;28;20179;-72
2022/01/18 03:50:19;;;;;;;4.37;1.90;;;;;;;3.20;nan;-23905.56;5052860;28;20225;-72
2022/01/18 03:52:46;;;;;;;2.00;1.73;;;;;;;3.38;nan;-23910.69;5052711;28;20219;-72
2022/01/18 03:55:14;;;;;;;1.83;1.63;;;;;;;3.62;nan;-23917.41;5052848;28;20178;-72
2022/01/18 03:57:39;;;;;;;3.37;1.90;;;;;;;3.48;nan;-23913.56;5052572;28;20199;-73
2022/01/18 04:00:09;;;;;;;4.37;2.10;;;;;;;3.85;nan;-23923.94;5052809;28;20666;-72
2022/01/18 04:02:34;;;;;;;2.53;1.63;;;;;;;3.81;nan;-23922.66;5040754;28;20339;-72
2022/01/18 04:05:01;;;;;;;3.40;1.90;;;;;;;3.57;nan;-23915.97;5052592;28;20174;-72
2022/01/18 04:07:26;;;;;;;1.80;1.60;;;;;;;3.78;nan;-23921.81;5052281;28;20641;-72
2022/01/18 04:09:52;;;;;;;3.37;1.90;;;;;;;3.63;nan;-23917.69;5050593;28;20210;-72
2022/01/18 04:12:17;;;;;;;3.33;2.00;;;;;;;2.98;nan;-23899.28;5047813;28;20211;-73
2022/01/18 04:14:43;;;;;;;3.23;1.67;;;;;;;3.44;nan;-23912.25;5052453;28;20186;-72
2022/01/18 04:17:17;;;;;;;2.40;1.60;;;;;;;3.28;nan;-23907.84;5034186;28;20581;-72
2022/01/18 04:28:04;;;;;;;3.47;1.87;;;;;;;3.41;nan;-23911.41;5037353;28;20705;-73
2022/01/18 04:30:29;;;;;;;3.57;1.73;;;;;;;3.39;nan;-23910.84;5037112;28;20184;-73
2022/01/18 04:32:55;;;;;;;3.33;1.80;;;;;;;3.23;nan;-23906.28;5037964;28;20178;-73
2022/01/18 04:35:20;;;;;;;3.07;1.70;;;;;;;3.05;nan;-23901.44;5037202;28;20269;-73
2022/01/18 04:37:46;;;;;;;6.83;1.93;;;;;;;2.50;nan;-23885.88;5037062;28;20217;-72
2022/01/18 04:40:16;;;;;;;4.50;2.40;;;;;;;2.73;nan;-23892.16;5037103;28;20174;-73
2022/01/18 04:50:37;;;;;;;2.50;2.07;;;;;;;2.76;nan;-23893.00;5036640;28;20188;-73
2022/01/18 04:53:03;;;;;;;3.57;2.10;;;;;;;2.78;nan;-23893.59;5019385;28;20637;-73
2022/01/18 04:55:32;;;;;;;2.80;1.83;;;;;;;2.57;nan;-23887.72;5037092;28;20921;-73
2022/01/18 04:57:58;;;;;;;4.83;1.83;;;;;;;2.71;nan;-23891.59;5036090;28;20772;-73
2022/01/18 05:00:25;;;;;;;2.20;1.80;;;;;;;2.80;nan;-23894.31;5037067;28;20260;-73
2022/01/18 05:02:51;;;;;;;3.50;1.87;;;;;;;2.33;nan;-23881.03;5034861;28;20674;-72
2022/01/18 05:05:37;;;;;;;5.03;1.80;;;;;;;2.81;nan;-23894.59;5035357;28;20171;-73
2022/01/18 05:08:05;;;;;;;4.23;1.80;;;;;;;2.81;nan;-23894.59;5032390;28;20189;-72
2022/01/18 05:10:31;;;;;;;3.30;1.80;;;;;;;2.78;nan;-23893.72;5034736;28;21156;-75
2022/01/18 05:12:59;;;;;;;3.93;2.00;;;;;;;2.81;nan;-23894.59;5017034;28;20630;-73
2022/01/18 05:23:19;;;;;;;7.50;2.30;;;;;;;2.81;nan;-23894.44;5032743;28;20252;-72
2022/01/18 05:25:46;;;;;;;6.60;2.40;;;;;;;2.42;nan;-23883.59;5035343;28;20668;-73
2022/01/18 05:28:12;;;;;;;7.13;3.37;;;;;;;2.38;nan;-23882.44;5035957;28;20182;-73
2022/01/18 05:30:38;;;;;;;4.67;2.83;;;;;;;2.26;nan;-23879.03;5035676;28;20194;-74
2022/01/18 05:33:03;;;;;;;6.43;2.77;;;;;;;2.72;nan;-23891.88;5017550;28;20190;-73
2022/01/18 05:35:29;;;;;;;5.33;2.20;;;;;;;2.38;nan;-23882.44;5035332;28;20176;-73
2022/01/18 05:37:55;;;;;;;3.60;2.70;;;;;;;2.39;nan;-23882.59;5035990;28;20317;-71
2022/01/18 05:40:20;;;;;;;4.07;2.70;;;;;;;2.90;nan;-23897.16;5035413;28;20174;-73
2022/01/18 05:42:46;;;;;;;5.47;2.87;;;;;;;2.40;nan;-23883.03;5039304;28;20171;-73
2022/01/18 05:45:13;;;;;;;5.50;2.40;;;;;;;2.55;nan;-23887.31;5040160;28;20187;-73
2022/01/18 05:47:40;;;;;;;2.17;1.90;;;;;;;2.86;nan;-23896.00;5040479;28;20209;-74
2022/01/18 05:50:08;;;;;;;5.07;2.00;;;;;;;3.07;nan;-23901.84;5040446;28;20241;-74
2022/01/18 05:52:33;;;;;;;3.57;1.90;;;;;;;3.15;nan;-23904.13;5040071;28;20294;-73
2022/01/18 05:54:59;;;;;;;10.60;2.33;;;;;;;2.74;nan;-23892.59;5040186;28;20591;-74
2022/01/18 05:57:25;;;;;;;2.90;1.97;;;;;;;2.98;nan;-23899.44;5040637;28;20189;-74
2022/01/18 05:59:53;;;;;;;5.90;2.47;;;;;;;2.81;nan;-23894.59;5039639;28;20207;-74
2022/01/18 06:02:33;;;;;;;3.63;2.10;;;;;;;3.26;nan;-23907.13;5038867;28;20175;-73
2022/01/18 06:07:43;;;;;;;8.13;2.20;;;;;;;3.13;nan;-23903.44;5039360;28;20280;-73
2022/01/18 06:10:08;;;;;;;6.07;2.27;;;;;;;3.19;nan;-23905.13;5039441;28;20222;-73
2022/01/18 06:12:34;;;;;;;3.13;2.17;;;;;;;2.70;nan;-23891.31;5040405;28;20183;-73
2022/01/18 06:15:00;;;;;;;6.10;2.50;;;;;;;3.04;nan;-23901.16;5038382;28;20198;-74
2022/01/18 06:17:25;;;;;;;8.80;2.67;;;;;;;3.25;nan;-23907.00;5038962;28;20178;-73
2022/01/18 06:19:51;;;;;;;9.57;2.60;;;;;;;2.74;nan;-23892.44;5040060;28;22152;-73
2022/01/18 06:22:17;;;;;;;9.97;2.20;;;;;;;2.84;nan;-23895.28;5039246;28;20191;-72
2022/01/18 06:24:43;;;;;;;4.60;2.70;;;;;;;3.22;nan;-23906.00;5040004;28;20183;-73
2022/01/18 06:27:09;;;;;;;6.27;2.40;;;;;;;3.18;nan;-23905.00;5038349;28;20194;-74
2022/01/18 06:29:35;;;;;;;4.50;2.73;;;;;;;2.83;nan;-23895.16;5039265;28;20568;-73
2022/01/18 06:32:04;;;;;;;3.87;2.50;;;;;;;3.23;nan;-23906.28;5038655;28;20183;-73
2022/01/18 06:34:29;;;;;;;4.10;2.73;;;;;;;3.09;nan;-23902.44;5039328;28;20186;-73
2022/01/18 06:36:55;;;;;;;4.17;2.70;;;;;;;2.80;nan;-23894.16;5027144;28;20708;-73
2022/01/18 06:39:20;;;;;;;4.30;2.93;;;;;;;2.72;nan;-23891.88;5038510;28;20283;-74
2022/01/18 06:41:46;;;;;;;4.37;2.67;;;;;;;2.84;nan;-23895.28;5038142;28;20602;-73
2022/01/18 06:44:12;;;;;;;4.97;2.80;;;;;;;3.03;nan;-23900.88;5036669;28;20710;-74
2022/01/18 06:46:38;;;;;;;4.40;2.70;;;;;;;3.34;nan;-23909.56;5037953;28;20171;-73
2022/01/18 06:49:03;;;;;;;4.00;2.60;;;;;;;3.25;nan;-23906.84;5039149;28;20662;-73
2022/01/18 06:51:29;;;;;;;5.07;2.77;;;;;;;3.25;nan;-23907.00;5038524;28;20180;-73
2022/01/18 06:53:56;;;;;;;3.80;2.90;;;;;;;2.83;nan;-23895.00;5037886;28;20221;-73
2022/01/18 06:56:22;;;;;;;7.17;2.70;;;;;;;3.41;nan;-23911.56;5037461;28;20236;-73
2022/01/18 06:58:48;;;;;;;4.90;2.90;;;;;;;3.50;nan;-23914.13;5037956;28;20241;-73
2022/01/18 07:01:14;;;;;;;6.80;2.83;;;;;;;3.34;nan;-23909.56;5036036;28;20217;-73
2022/01/18 07:03:40;;;;;;;8.03;2.60;;;;;;;3.37;nan;-23910.28;5037693;28;20186;-73
2022/01/18 07:06:06;;;;;;;3.73;2.30;;;;;;;3.63;nan;-23917.53;5037864;28;20681;-72
2022/01/18 07:08:32;;;;;;;5.43;2.90;;;;;;;3.40;nan;-23911.28;5038290;28;20269;-73
2022/01/18 07:10:58;;;;;;;7.73;3.00;;;;;;;3.46;nan;-23912.84;5038473;28;20286;-72
2022/01/18 07:13:24;;;;;;;7.63;2.40;;;;;;;3.38;nan;-23910.56;5026507;28;20179;-72
2022/01/18 07:15:50;;;;;;;6.13;2.80;;;;;;;3.80;nan;-23922.53;5039420;28;20182;-73
2022/01/18 07:18:16;;;;;;;8.93;3.80;;;;;;;3.68;nan;-23919.09;5038132;28;20306;-74
2022/01/18 07:20:41;;;;;;;5.80;2.90;;;;;;;3.81;nan;-23922.66;5039024;28;20194;-73
2022/01/18 07:23:12;;;;;;;4.33;2.67;;;;;;;3.36;nan;-23910.13;5038768;28;20191;-72
2022/01/18 07:25:44;;;;;;;7.03;2.47;;;;;;;3.28;nan;-23907.72;5038218;28;20206;-72
2022/01/18 07:28:11;;;;;;;4.73;2.00;;;;;;;3.51;nan;-23914.41;5038355;28;20178;-73
2022/01/18 07:30:37;;;;;;;4.83;2.23;;;;;;;3.88;nan;-23924.66;5037653;28;20277;-73
2022/01/18 07:33:04;;;;;;;5.00;3.30;;;;;;;3.83;nan;-23923.38;5038582;28;20662;-73
2022/01/18 07:35:33;;;;;;;6.77;2.47;;;;;;;3.84;nan;-23923.53;5035590;28;20332;-73
2022/01/18 07:38:00;;;;;;;3.57;2.37;;;;;;;3.88;nan;-23924.66;5025815;28;20226;-73
2022/01/18 07:40:27;;;;;;;4.07;2.53;;;;;;;4.03;nan;-23928.78;5036031;28;20178;-73
2022/01/18 07:42:53;;;;;;;5.37;2.30;;;;;;;3.84;nan;-23923.53;5038529;28;20193;-73
2022/01/18 07:45:19;;;;;;;7.37;2.53;;;;;;;3.75;nan;-23921.09;5037497;28;20183;-72
2022/01/18 07:47:44;;;;;;;4.77;2.50;;;;;;;4.33;nan;-23937.47;5037714;28;20276;-72
2022/01/18 07:50:10;;;;;;;5.10;2.60;;;;;;;4.21;nan;-23934.06;5038195;28;20704;-72
2022/01/18 07:52:36;;;;;;;6.63;2.60;;;;;;;3.70;nan;-23919.69;5037730;28;20587;-71
2022/01/18 07:55:05;;;;;;;6.03;3.33;;;;;;;4.62;nan;-23945.47;5036186;28;20217;-73
2022/01/18 07:57:31;;;;;;;10.60;2.70;;;;;;;4.12;nan;-23931.50;5036570;28;20274;-72
2022/01/18 07:59:57;;;;;;;4.63;2.53;;;;;;;4.48;nan;-23941.63;5038644;28;20289;-72
2022/01/18 08:02:23;;;;;;;10.77;2.50;;;;;;;4.09;nan;-23930.50;5044963;28;20245;-73
2022/01/18 08:04:49;;;;;;;4.53;2.30;;;;;;;4.47;nan;-23941.19;5051232;28;20187;-73
2022/01/18 08:07:14;;;;;;;3.40;2.50;;;;;;;4.26;nan;-23935.34;5051529;28;20178;-73
2022/01/18 08:09:40;;;;;;;8.40;2.97;;;;;;;4.40;nan;-23939.47;5051766;28;20249;-73
2022/01/18 08:12:06;;;;;;;7.87;2.33;;;;;;;4.26;nan;-23935.34;5052143;28;20269;-72
2022/01/18 08:14:33;;;;;;;8.37;2.90;;;;;;;4.72;nan;-23948.31;5051978;28;20327;-73
2022/01/18 08:17:00;;;;;;;4.90;2.37;;;;;;;4.42;nan;-23940.03;5051961;28;20180;-73
2022/01/18 08:19:30;;;;;;;3.17;2.43;;;;;;;4.70;nan;-23947.72;5051672;28;20201;-73
2022/01/18 08:21:56;;;;;;;6.70;2.90;;;;;;;4.49;nan;-23941.75;5051935;28;20163;-73
2022/01/18 08:24:22;;;;;;;4.30;2.67;;;;;;;4.51;nan;-23942.31;5051607;28;20178;-73
2022/01/18 08:26:48;;;;;;;5.83;2.50;;;;;;;4.67;nan;-23946.88;5051370;28;20264;-72
2022/01/18 08:29:13;;;;;;;4.53;2.60;;;;;;;4.83;nan;-23951.44;5051676;28;20170;-74
2022/01/18 08:31:42;;;;;;;8.23;2.60;;;;;;;5.15;nan;-23960.41;5051233;28;20595;-73
2022/01/18 08:34:08;;;;;;;5.47;2.50;;;;;;;4.76;nan;-23949.44;5051467;28;20170;-73
2022/01/18 08:36:34;;;;;;;7.53;2.63;;;;;;;5.16;nan;-23960.69;5051549;28;20178;-73
2022/01/18 08:39:01;;;;;;;4.63;2.47;;;;;;;5.27;nan;-23963.81;5051382;28;20206;-73
2022/01/18 08:41:27;;;;;;;4.97;2.47;;;;;;;5.33;nan;-23965.50;5050578;28;20246;-72
2022/01/18 08:43:53;;;;;;;5.33;2.70;;;;;;;5.41;nan;-23967.66;5044507;28;20225;-73
2022/01/18 08:46:19;;;;;;;5.63;2.53;;;;;;;5.47;nan;-23969.34;5050985;28;20217;-73
2022/01/18 08:48:45;;;;;;;7.20;2.70;;;;;;;4.97;nan;-23955.28;5046278;28;20194;-73
2022/01/18 08:51:11;;;;;;;6.33;2.77;;;;;;;5.14;nan;-23960.25;5043831;28;20187;-72
2022/01/18 08:53:38;;;;;;;4.93;2.53;;;;;;;5.21;nan;-23962.25;5050909;28;20237;-73
2022/01/18 08:56:07;;;;;;;3.97;2.77;;;;;;;5.17;nan;-23961.09;5044232;28;20226;-73
2022/01/18 08:58:34;;;;;;;3.73;2.50;;;;;;;5.33;nan;-23965.50;5014954;28;20260;-73
2022/01/18 09:01:02;;;;;;;4.93;2.60;;;;;;;5.82;nan;-23979.31;5050925;28;20235;-73
2022/01/18 09:03:28;;;;;;;3.53;2.63;;;;;;;5.76;nan;-23977.59;5050953;28;20177;-72
2022/01/18 09:05:53;;;;;;;6.23;2.80;;;;;;;5.75;nan;-23977.31;5051027;28;20224;-73
2022/01/18 09:08:20;;;;;;;6.10;2.83;;;;;;;5.60;nan;-23973.03;5050849;28;20233;-73
2022/01/18 09:10:47;;;;;;;7.57;3.70;;;;;;;6.09;nan;-23986.97;5033065;28;20680;-73
2022/01/18 09:13:16;;;;;;;5.73;3.00;;;;;;;5.65;nan;-23974.47;5051101;28;20261;-73
2022/01/18 09:15:43;;;;;;;6.30;2.83;;;;;;;5.52;nan;-23970.91;5050649;28;20175;-73
2022/01/18 09:18:09;;;;;;;8.57;2.67;;;;;;;5.91;nan;-23981.72;5049844;28;20688;-72
2022/01/18 09:20:38;;;;;;;3.70;2.73;;;;;;;5.88;nan;-23980.88;5051117;28;20166;-73
2022/01/18 09:23:03;;;;;;;3.77;2.93;;;;;;;5.93;nan;-23982.44;5050886;28;20546;-74
2022/01/18 09:25:30;;;;;;;5.30;2.67;;;;;;;6.07;nan;-23986.41;5050795;28;20243;-72
2022/01/18 09:27:56;;;;;;;4.63;2.60;;;;;;;5.79;nan;-23978.59;5050801;28;20174;-72
2022/01/18 09:30:25;;;;;;;3.90;2.50;;;;;;;6.12;nan;-23987.69;5050726;28;20263;-72
2022/01/18 09:32:52;;;;;;;5.57;2.60;;;;;;;6.32;nan;-23993.22;5026272;28;20555;-73
2022/01/18 09:35:18;;;;;;;5.80;2.60;;;;;;;5.85;nan;-23980.16;5050356;28;20174;-73
2022/01/18 09:37:44;;;;;;;4.30;2.70;;;;;;;6.15;nan;-23988.69;5050485;28;20171;-72
2022/01/18 09:40:14;;;;;;;4.27;2.80;;;;;;;6.09;nan;-23986.84;5050377;28;20197;-72
2022/01/18 09:42:41;;;;;;;6.37;2.57;;;;;;;6.24;nan;-23990.94;5041780;28;20205;-73
2022/01/18 09:45:11;;;;;;;4.00;2.67;;;;;;;5.89;nan;-23981.28;5023822;28;20614;-73
2022/01/18 09:47:39;;;;;;;9.13;3.37;;;;;;;5.75;nan;-23977.31;5039813;28;20655;-72
2022/01/18 09:50:07;;;;;;;5.13;2.80;;;;;;;5.79;nan;-23978.59;5042022;28;20175;-73
2022/01/18 09:52:32;;;;;;;4.80;2.70;;;;;;;6.12;nan;-23987.81;5038739;28;20226;-74
2022/01/18 09:54:58;;;;;;;6.37;2.77;;;;;;;6.01;nan;-23984.69;5036802;28;20179;-72
2022/01/18 09:57:24;;;;;;;5.03;2.80;;;;;;;6.53;nan;-23999.31;5040273;28;20614;-73
2022/01/18 09:59:49;;;;;;;4.43;2.70;;;;;;;5.97;nan;-23983.56;5042332;28;20217;-73
2022/01/18 10:02:15;;;;;;;8.13;3.03;;;;;;;6.41;nan;-23995.78;5034744;28;20187;-73
2022/01/18 10:04:42;;;;;;;5.70;3.03;;;;;;;6.40;nan;-23995.63;5036926;28;20175;-73
2022/01/18 10:07:08;;;;;;;5.97;3.13;;;;;;;6.02;nan;-23984.84;5035685;28;20649;-73
2022/01/18 10:09:34;;;;;;;5.57;3.00;;;;;;;6.17;nan;-23989.09;5037889;28;20657;-73
2022/01/18 10:12:10;;;;;;;4.60;3.00;;;;;;;6.34;nan;-23993.78;5019681;28;20202;-73
2022/01/18 10:14:41;;;;;;;5.37;3.30;;;;;;;6.39;nan;-23995.22;5033662;28;20179;-73
2022/01/18 10:17:10;;;;;;;5.63;3.30;;;;;;;6.30;nan;-23992.66;5035937;28;20560;-72
2022/01/18 10:19:48;;;;;;;7.50;3.40;;;;;;;6.12;nan;-23987.81;5034933;28;20207;-73
2022/01/18 10:22:17;;;;;;;4.70;2.70;;;;;;;6.46;nan;-23997.19;5045426;28;20248;-73
2022/01/18 10:24:43;;;;;;;6.80;3.17;;;;;;;6.67;nan;-24003.16;5049782;28;20240;-75
2022/01/18 10:27:09;;;;;;;6.50;3.20;;;;;;;6.06;nan;-23986.13;5047838;28;20187;-74
2022/01/18 10:29:39;;;;;;;5.07;3.00;;;;;;;6.31;nan;-23992.94;5050016;28;20182;-73
2022/01/18 10:32:35;;;;;;;7.80;3.40;;;;;;;6.20;nan;-23989.97;5047225;28;20282;-73
2022/01/18 10:37:28;;;;;;;6.23;2.73;;;;;;;6.92;nan;-24010.25;5053423;28;20193;-74
2022/01/18 10:40:00;;;;;;;3.80;3.00;;;;;;;7.02;nan;-24012.94;5049931;28;20210;-74
2022/01/18 10:42:38;;;;;;;4.57;3.00;;;;;;;6.97;nan;-24011.66;5033615;28;20189;-74
2022/01/18 10:45:23;;;;;;;6.07;2.80;;;;;;;7.06;nan;-24014.22;5048086;28;20182;-73
2022/01/18 10:48:13;;;;;;;6.93;3.00;;;;;;;7.12;nan;-24015.78;5045896;28;20183;-73
2022/01/18 10:50:42;;;;;;;5.00;2.63;;;;;;;7.07;nan;-24014.50;5028339;28;20268;-74
2022/01/18 10:53:18;;;;;;;5.30;2.60;;;;;;;6.69;nan;-24003.59;5039107;28;20227;-73
2022/01/18 10:55:46;;;;;;;6.17;3.10;;;;;;;6.78;nan;-24006.28;5037612;28;20175;-75
2022/01/18 10:58:16;;;;;;;7.73;3.53;;;;;;;6.67;nan;-24003.16;5044994;28;20194;-73
2022/01/18 11:00:42;;;;;;;3.30;2.50;;;;;;;6.77;nan;-24006.00;5040611;28;20615;-72
2022/01/18 11:03:09;;;;;;;3.73;2.77;;;;;;;6.78;nan;-24006.13;5041502;28;20237;-73
2022/01/18 11:05:37;;;;;;;6.73;2.77;;;;;;;6.91;nan;-24009.97;5051321;28;20277;-74
2022/01/18 11:08:04;;;;;;;5.67;3.10;;;;;;;6.95;nan;-24010.97;5044802;28;20266;-74
2022/01/18 11:10:41;;;;;;;6.80;2.90;;;;;;;7.02;nan;-24012.94;5043222;28;21185;-73
2022/01/18 11:13:13;;;;;;;8.97;3.20;;;;;;;7.28;nan;-24020.19;5037532;28;20186;-73
2022/01/18 11:15:43;;;;;;;7.27;2.87;;;;;;;7.00;nan;-24012.53;5040193;28;20271;-74
2022/01/18 11:18:45;;;;;;;3.63;2.70;;;;;;;6.76;nan;-24005.72;5053290;28;20194;-74
2022/01/18 11:21:02;;;;;;;6.60;2.87;;;;;;;6.69;nan;-24003.72;5042371;28;20633;-73
2022/01/18 11:23:33;;;;;;;5.70;2.67;;;;;;;7.10;nan;-24015.34;5051640;28;20638;-74
2022/01/18 11:25:59;;;;;;;4.37;2.70;;;;;;;7.15;nan;-24016.50;5052083;28;20178;-73
2022/01/18 11:28:26;;;;;;;5.53;2.50;;;;;;;7.33;nan;-24021.59;5052407;28;20159;-71
2022/01/18 11:30:51;;;;;;;5.70;2.70;;;;;;;7.13;nan;-24016.06;5046314;28;20192;-71
2022/01/18 11:33:20;;;;;;;4.47;3.10;;;;;;;6.94;nan;-24010.69;5045145;28;20285;-71
2022/01/18 11:35:58;;;;;;;7.50;2.70;;;;;;;6.82;nan;-24007.41;5047876;28;20183;-72
2022/01/18 11:38:35;;;;;;;3.73;2.70;;;;;;;7.16;nan;-24016.78;5053149;28;20269;-72
2022/01/18 11:41:05;;;;;;;7.63;2.90;;;;;;;7.32;nan;-24021.47;5052023;28;20202;-71
2022/01/18 11:43:38;;;;;;;5.73;2.97;;;;;;;7.20;nan;-24017.91;5052455;28;20178;-73
2022/01/18 11:46:40;;;;;;;3.53;2.70;;;;;;;6.83;nan;-24007.69;5052409;28;20185;-72
2022/01/18 11:49:15;;;;;;;5.33;3.00;;;;;;;6.86;nan;-24008.56;5052352;28;20162;-72
2022/01/18 11:51:53;;;;;;;4.90;3.10;;;;;;;7.40;nan;-24023.72;5052227;28;20360;-66
2022/01/18 11:56:56;;;;;;;5.83;3.30;;;;;;;7.75;nan;-24033.38;5040916;28;20195;-64
2022/01/18 11:59:38;;;;;;;9.53;3.17;;;;;;;7.84;nan;-24036.06;5052620;28;20214;-65
2022/01/18 12:02:05;;;;;;;4.60;3.50;;;;;;;7.94;nan;-24038.88;5046577;28;20259;-55
2022/01/18 12:04:46;;;;;;;6.57;3.93;;;;;;;7.73;nan;-24032.94;5051436;28;20205;-55
2022/01/18 12:07:34;;;;;;;7.27;3.53;;;;;;;8.34;nan;-24049.94;5052455;28;20186;-58
2022/01/18 12:10:08;;;;;;;5.13;3.47;;;;;;;8.24;nan;-24047.25;5052324;28;20202;-58
2022/01/18 12:12:39;;;;;;;6.43;3.27;;;;;;;8.26;nan;-24047.66;5052452;28;20272;-58
2022/01/18 12:15:26;;;;;;;5.77;3.20;;;;;;;8.37;nan;-24050.78;5052226;28;20518;-63
2022/01/18 12:17:55;;;;;;;17.10;3.83;;;;;;;8.34;nan;-24049.94;5051679;28;20182;-61
2022/01/18 12:20:46;;;;;;;5.87;2.80;;;;;;;8.31;nan;-24049.22;5051972;28;20572;-60
2022/01/18 12:23:12;;;;;;;5.27;2.83;;;;;;;8.32;nan;-24049.50;5052480;28;20193;-61
2022/01/18 12:28:46;;;;;;;3.80;2.80;;;;;;;7.80;nan;-24034.91;5051745;28;20249;-73
2022/01/18 12:34:25;;;;;;;3.97;2.73;;;;;;;7.22;nan;-24018.47;5044792;28;20194;-73
2022/01/18 12:36:52;;;;;;;8.67;3.20;;;;;;;7.63;nan;-24029.97;5041071;28;20179;-74
2022/01/18 12:39:17;;;;;;;4.83;3.07;;;;;;;7.70;nan;-24031.94;5050822;28;20640;-74
2022/01/18 12:41:47;;;;;;;3.33;2.73;;;;;;;7.51;nan;-24026.69;5050856;28;20644;-74
2022/01/18 12:44:21;;;;;;;4.87;2.83;;;;;;;7.33;nan;-24021.75;5050630;28;20653;-74
2022/01/18 12:46:55;;;;;;;6.17;3.23;;;;;;;7.53;nan;-24027.41;5049213;28;20215;-65
2022/01/18 12:49:21;;;;;;;4.50;2.60;;;;;;;7.73;nan;-24032.94;5041264;28;20189;-73
2022/01/18 12:51:57;;;;;;;8.40;2.77;;;;;;;7.76;nan;-24033.78;5044399;28;20214;-72
2022/01/18 12:54:39;;;;;;;6.07;2.80;;;;;;;7.49;nan;-24026.13;5051609;28;20244;-72
2022/01/18 12:57:31;;;;;;;5.33;3.00;;;;;;;7.51;nan;-24026.69;5051381;28;20170;-72
2022/01/18 13:00:02;;;;;;;3.70;2.40;;;;;;;7.57;nan;-24028.25;5046998;28;20226;-72
2022/01/18 13:02:28;;;;;;;4.23;2.90;;;;;;;6.97;nan;-24011.66;5051802;28;20627;-73
2022/01/18 13:05:06;;;;;;;4.90;2.97;;;;;;;7.22;nan;-24018.47;5050920;28;20175;-72
2022/01/18 13:07:31;;;;;;;5.47;3.53;;;;;;;6.92;nan;-24010.25;5051363;28;20242;-72
2022/01/18 13:09:58;;;;;;;5.13;3.30;;;;;;;7.03;nan;-24013.38;5051329;28;20269;-71
2022/01/18 13:12:29;;;;;;;7.13;3.40;;;;;;;7.13;nan;-24016.06;5049587;28;20185;-72
2022/01/18 13:14:56;;;;;;;4.70;3.10;;;;;;;7.20;nan;-24018.06;5050879;28;20186;-72
2022/01/18 13:23:22;;;;;;;3.87;2.80;;;;;;;7.27;nan;-24020.03;5034857;28;20669;-70
2022/01/18 13:25:52;;;;;;;6.93;2.70;;;;;;;6.87;nan;-24008.69;5049299;28;20641;-74
2022/01/18 13:28:18;;;;;;;4.93;2.80;;;;;;;6.87;nan;-24008.69;5045668;28;20179;-71
2022/01/18 13:30:43;;;;;;;5.13;3.30;;;;;;;7.10;nan;-24015.22;5046291;28;20235;-73
2022/01/18 13:33:11;;;;;;;5.63;2.90;;;;;;;6.85;nan;-24008.13;5032721;28;20198;-71